Time;durP1;ratioP1;P1;durP2;ratioP2;P2;SDS_P1;SDS_P2;PMS_P1;PMS_P2;Temp;Humidity;BMP_temperature;BMP_pressure;BME280_temperature;BME280_humidity;BME280_pressure;Samples;Min_cycle;Max_cycle;Signal;HPM_P1;HPM_P2
2023/07/23 00:00:06;;;;;;;7.97;2.28;;;20.40;99.90;;;;;;4186936;28;20435;-58
2023/07/23 00:02:26;;;;;;;6.07;2.45;;;20.40;99.90;;;;;;4179994;28;20086;-59
2023/07/23 00:04:46;;;;;;;4.40;2.95;;;20.40;99.90;;;;;;4180785;28;20064;-58
2023/07/23 00:07:06;;;;;;;1.67;1.42;;;20.30;99.90;;;;;;4178052;28;20048;-59
2023/07/23 00:09:26;;;;;;;2.70;1.75;;;20.40;99.90;;;;;;4179245;28;20128;-59
2023/07/23 00:11:47;;;;;;;6.18;1.75;;;20.50;99.90;;;;;;4182171;28;20239;-59
2023/07/23 00:14:08;;;;;;;3.58;1.95;;;20.40;99.90;;;;;;4186201;28;20052;-59
2023/07/23 00:16:28;;;;;;;1.92;1.67;;;20.40;99.90;;;;;;4188682;28;20048;-59
2023/07/23 00:18:49;;;;;;;1.80;1.70;;;20.20;99.90;;;;;;4186900;28;20047;-60
2023/07/23 00:21:09;;;;;;;2.42;1.70;;;20.20;99.90;;;;;;4183372;28;20044;-59
2023/07/23 00:23:29;;;;;;;2.22;2.13;;;20.10;99.90;;;;;;4183862;28;20293;-58
2023/07/23 00:25:49;;;;;;;6.05;2.53;;;20.10;99.90;;;;;;4184153;28;20110;-59
2023/07/23 00:28:10;;;;;;;2.40;2.10;;;20.10;99.90;;;;;;4182640;28;20251;-59
2023/07/23 00:30:30;;;;;;;3.25;2.53;;;20.10;99.90;;;;;;4183520;28;20035;-58
2023/07/23 00:32:50;;;;;;;3.78;2.03;;;20.00;99.90;;;;;;4183511;28;20363;-58
2023/07/23 00:35:10;;;;;;;3.30;2.47;;;20.00;99.90;;;;;;4182811;28;20048;-58
2023/07/23 00:37:31;;;;;;;5.78;2.47;;;19.90;99.90;;;;;;4178723;28;20379;-58
2023/07/23 00:39:51;;;;;;;4.03;1.98;;;19.60;99.90;;;;;;4179383;28;20111;-59
2023/07/23 00:42:12;;;;;;;3.08;2.00;;;19.60;99.90;;;;;;4182171;28;20059;-59
2023/07/23 00:44:32;;;;;;;2.28;1.83;;;19.30;99.90;;;;;;4184859;28;20271;-59
2023/07/23 00:46:53;;;;;;;2.63;2.13;;;19.30;99.90;;;;;;4184469;28;20044;-58
2023/07/23 00:49:13;;;;;;;2.28;2.17;;;19.40;99.90;;;;;;4184692;28;20436;-58
2023/07/23 00:51:34;;;;;;;1.92;1.83;;;19.70;99.90;;;;;;4184764;28;20126;-59
2023/07/23 00:53:53;;;;;;;1.88;1.77;;;19.80;99.90;;;;;;4185136;28;20116;-58
2023/07/23 00:56:14;;;;;;;2.72;2.50;;;19.80;99.90;;;;;;4183372;28;20083;-59
2023/07/23 00:58:34;;;;;;;5.13;2.33;;;19.90;99.90;;;;;;4185209;28;20078;-59
2023/07/23 01:00:54;;;;;;;2.95;1.98;;;19.50;99.90;;;;;;4186259;28;20228;-58
2023/07/23 01:03:15;;;;;;;2.85;2.13;;;19.40;99.90;;;;;;4209540;22;20079;-56
2023/07/23 01:05:39;;;;;;;4.38;1.77;;;19.50;99.90;;;;;;4184926;28;20048;-55
2023/07/23 01:07:59;;;;;;;2.58;2.03;;;19.50;99.90;;;;;;4178303;28;20390;-55
2023/07/23 01:10:20;;;;;;;3.83;1.90;;;19.40;99.90;;;;;;4181678;28;20239;-56
2023/07/23 01:12:41;;;;;;;2.45;2.33;;;19.30;99.90;;;;;;4182994;28;20068;-55
2023/07/23 01:15:04;;;;;;;3.28;2.92;;;19.30;99.90;;;;;;4185600;28;20060;-56
2023/07/23 01:17:25;;;;;;;7.15;2.78;;;19.10;99.90;;;;;;4184531;28;20087;-55
2023/07/23 01:19:45;;;;;;;2.25;2.13;;;19.10;99.90;;;;;;4176539;28;20243;-55
2023/07/23 01:22:08;;;;;;;7.57;3.00;;;19.10;99.90;;;;;;4178698;28;20052;-55
2023/07/23 01:24:28;;;;;;;2.55;2.45;;;18.90;99.90;;;;;;4179139;28;20044;-56
2023/07/23 01:26:48;;;;;;;4.25;2.60;;;19.00;99.90;;;;;;4179802;28;20063;-56
2023/07/23 01:29:10;;;;;;;3.42;3.13;;;19.10;99.90;;;;;;4177280;28;20048;-55
2023/07/23 01:31:29;;;;;;;2.90;2.55;;;19.10;99.90;;;;;;4185575;28;20243;-56
2023/07/23 01:33:50;;;;;;;3.55;3.35;;;19.10;99.90;;;;;;4188011;28;20052;-56
2023/07/23 01:36:11;;;;;;;3.17;2.20;;;19.10;99.90;;;;;;4186244;28;20099;-55
2023/07/23 01:38:31;;;;;;;2.03;1.92;;;18.90;99.90;;;;;;4183499;28;20052;-55
2023/07/23 01:40:52;;;;;;;2.30;2.20;;;19.00;99.90;;;;;;4183072;28;20055;-55
2023/07/23 01:43:12;;;;;;;4.20;2.97;;;19.00;99.90;;;;;;4180140;28;20249;-56
2023/07/23 01:45:32;;;;;;;3.28;3.03;;;18.90;99.90;;;;;;4186276;28;20079;-55
2023/07/23 01:47:52;;;;;;;2.72;2.53;;;18.80;99.90;;;;;;4183126;28;20124;-56
2023/07/23 01:50:13;;;;;;;4.75;2.33;;;18.60;99.90;;;;;;4188179;28;20082;-56
2023/07/23 01:52:33;;;;;;;4.10;2.53;;;18.40;99.90;;;;;;4183709;28;20068;-56
2023/07/23 01:54:53;;;;;;;2.72;2.63;;;18.50;99.90;;;;;;4182788;28;20112;-56
2023/07/23 01:57:13;;;;;;;4.28;2.80;;;18.40;99.90;;;;;;4186368;28;20363;-55
2023/07/23 01:59:33;;;;;;;2.78;2.58;;;18.50;99.90;;;;;;4182895;28;20051;-55
2023/07/23 02:01:53;;;;;;;2.95;2.67;;;18.70;99.90;;;;;;4182560;28;20051;-56
2023/07/23 02:04:14;;;;;;;6.55;3.50;;;18.80;99.90;;;;;;4184066;28;20052;-55
2023/07/23 02:06:36;;;;;;;2.33;2.22;;;18.80;99.90;;;;;;4183961;28;20060;-56
2023/07/23 02:08:56;;;;;;;2.72;2.08;;;18.80;99.90;;;;;;4182498;28;20370;-55
2023/07/23 02:11:16;;;;;;;4.22;2.53;;;18.70;99.90;;;;;;4182044;28;20095;-55
2023/07/23 02:13:36;;;;;;;2.78;2.35;;;18.70;99.90;;;;;;4182560;28;20048;-55
2023/07/23 02:15:56;;;;;;;3.10;2.53;;;18.70;99.90;;;;;;4183291;28;20064;-56
2023/07/23 02:18:16;;;;;;;2.15;2.05;;;18.70;99.90;;;;;;4183212;28;20056;-55
2023/07/23 02:20:36;;;;;;;3.70;2.47;;;18.60;99.90;;;;;;4182962;28;20063;-55
2023/07/23 02:22:57;;;;;;;4.45;2.90;;;18.60;99.90;;;;;;4187352;28;20048;-56
2023/07/23 02:25:17;;;;;;;2.40;2.25;;;18.60;99.90;;;;;;4176048;28;20084;-56
2023/07/23 02:27:37;;;;;;;2.35;2.22;;;18.60;99.90;;;;;;4180149;28;20104;-56
2023/07/23 02:29:57;;;;;;;4.43;3.17;;;18.60;99.90;;;;;;4180380;28;20048;-55
2023/07/23 02:32:16;;;;;;;2.75;2.65;;;18.60;99.90;;;;;;4184411;28;20048;-56
2023/07/23 02:34:37;;;;;;;3.40;3.10;;;18.60;99.90;;;;;;4185114;28;20283;-55
2023/07/23 02:36:57;;;;;;;2.30;2.15;;;18.60;99.90;;;;;;4174248;28;20299;-56
2023/07/23 02:39:17;;;;;;;2.10;2.00;;;18.40;99.90;;;;;;4177745;28;20084;-55
2023/07/23 02:41:37;;;;;;;2.30;2.10;;;18.40;99.90;;;;;;4185682;28;20036;-55
2023/07/23 02:43:57;;;;;;;4.72;2.38;;;18.50;99.90;;;;;;4183442;28;20087;-56
2023/07/23 02:46:17;;;;;;;2.45;2.35;;;18.40;99.90;;;;;;4186525;28;20311;-56
2023/07/23 02:48:37;;;;;;;2.28;2.08;;;18.30;99.90;;;;;;4181040;28;20248;-56
2023/07/23 02:50:57;;;;;;;2.53;2.33;;;18.20;99.90;;;;;;4186279;28;20063;-56
2023/07/23 02:53:17;;;;;;;3.83;2.75;;;18.20;99.90;;;;;;4190288;28;20232;-55
2023/07/23 02:55:37;;;;;;;6.93;3.58;;;18.10;99.90;;;;;;4187968;28;20544;-55
2023/07/23 02:57:57;;;;;;;4.43;2.75;;;18.20;99.90;;;;;;4184814;28;20362;-55
2023/07/23 03:00:20;;;;;;;3.50;2.85;;;18.30;99.90;;;;;;4187320;28;20251;-55
2023/07/23 03:02:40;;;;;;;3.25;3.05;;;18.20;99.90;;;;;;4187870;28;20290;-56
2023/07/23 03:05:00;;;;;;;11.32;2.42;;;17.90;99.90;;;;;;4187381;28;20415;-55
2023/07/23 03:07:20;;;;;;;2.92;2.72;;;17.80;99.90;;;;;;4188291;28;20048;-55
2023/07/23 03:09:40;;;;;;;3.58;3.28;;;17.90;99.90;;;;;;4183186;28;20048;-55
2023/07/23 03:12:00;;;;;;;3.85;2.75;;;18.00;99.90;;;;;;4185845;28;20051;-55
2023/07/23 03:14:20;;;;;;;2.22;2.13;;;17.90;99.90;;;;;;4183579;28;20095;-55
2023/07/23 03:16:40;;;;;;;3.60;3.40;;;17.80;99.90;;;;;;4183783;28;20056;-56
2023/07/23 03:19:00;;;;;;;4.30;3.22;;;17.90;99.90;;;;;;4185111;28;20243;-55
2023/07/23 03:21:20;;;;;;;2.85;2.50;;;17.80;99.90;;;;;;4184741;28;20240;-55
2023/07/23 03:23:40;;;;;;;3.72;2.83;;;17.80;99.90;;;;;;4188809;28;20074;-56
2023/07/23 03:26:00;;;;;;;2.20;2.10;;;17.70;99.90;;;;;;4188387;28;20285;-55
2023/07/23 03:28:20;;;;;;;2.67;2.58;;;17.60;99.90;;;;;;4186918;28;20048;-56
2023/07/23 03:30:40;;;;;;;3.30;3.10;;;17.70;99.90;;;;;;4180882;28;20117;-55
2023/07/23 03:33:00;;;;;;;3.13;2.80;;;17.80;99.90;;;;;;4183256;28;20232;-55
2023/07/23 03:35:21;;;;;;;6.03;3.78;;;17.90;99.90;;;;;;4184689;28;20086;-56
2023/07/23 03:37:41;;;;;;;2.78;2.67;;;17.90;99.90;;;;;;4185492;28;20048;-55
2023/07/23 03:40:01;;;;;;;2.65;2.55;;;17.80;99.90;;;;;;4185508;28;20056;-55
2023/07/23 03:42:23;;;;;;;3.28;2.97;;;17.80;99.90;;;;;;4181239;28;20048;-55
2023/07/23 03:44:43;;;;;;;2.28;2.17;;;17.70;99.90;;;;;;4178653;28;20048;-55
2023/07/23 03:47:14;;;;;;;2.83;2.65;;;17.80;99.90;;;;;;4182022;28;20072;-56
2023/07/23 03:49:33;;;;;;;3.10;2.85;;;17.70;99.90;;;;;;4183772;28;20099;-55
2023/07/23 03:51:53;;;;;;;2.15;2.05;;;17.60;99.90;;;;;;4177649;28;20051;-55
2023/07/23 03:54:13;;;;;;;6.43;2.25;;;17.70;99.90;;;;;;4177045;28;20049;-56
2023/07/23 03:56:33;;;;;;;3.80;3.20;;;17.60;99.90;;;;;;4189086;28;20076;-55
2023/07/23 03:58:53;;;;;;;3.35;3.15;;;17.50;99.90;;;;;;4186485;28;20055;-56
2023/07/23 04:01:13;;;;;;;3.55;2.75;;;17.50;99.90;;;;;;4181383;28;20071;-55
2023/07/23 04:03:34;;;;;;;3.63;2.90;;;17.40;99.90;;;;;;4182548;28;20107;-56
2023/07/23 04:05:56;;;;;;;3.67;3.47;;;17.30;99.90;;;;;;4187730;28;20052;-55
2023/07/23 04:08:16;;;;;;;3.33;3.20;;;17.20;99.90;;;;;;4183841;28;20083;-55
2023/07/23 04:10:36;;;;;;;3.95;3.60;;;17.30;99.90;;;;;;4185096;28;20059;-56
2023/07/23 04:12:56;;;;;;;3.47;3.20;;;17.50;99.90;;;;;;4188664;28;20049;-56
2023/07/23 04:15:16;;;;;;;3.63;2.72;;;17.60;99.90;;;;;;4184972;28;20048;-56
2023/07/23 04:17:36;;;;;;;11.73;3.97;;;17.50;99.90;;;;;;4181769;28;20405;-56
2023/07/23 04:19:56;;;;;;;3.55;3.35;;;17.70;99.90;;;;;;4188091;28;20398;-55
2023/07/23 04:22:16;;;;;;;3.05;2.85;;;17.70;99.90;;;;;;4184884;28;20048;-56
2023/07/23 04:24:36;;;;;;;3.35;3.20;;;17.70;99.90;;;;;;4185946;28;20059;-55
2023/07/23 04:26:56;;;;;;;3.67;2.92;;;17.70;99.90;;;;;;4185375;28;20232;-56
2023/07/23 04:29:16;;;;;;;3.67;3.40;;;17.70;99.90;;;;;;4184383;28;20243;-55
2023/07/23 04:31:37;;;;;;;3.70;2.72;;;17.70;99.90;;;;;;4183468;28;20363;-55
2023/07/23 04:33:59;;;;;;;3.58;3.28;;;17.60;99.90;;;;;;4180365;28;20119;-55
2023/07/23 04:36:19;;;;;;;3.63;3.35;;;17.60;99.90;;;;;;4182468;28;20044;-55
2023/07/23 04:38:40;;;;;;;3.10;3.00;;;17.60;99.90;;;;;;4183825;28;20056;-55
2023/07/23 04:41:00;;;;;;;5.00;3.80;;;17.60;99.90;;;;;;4186948;28;20139;-55
2023/07/23 04:43:20;;;;;;;3.15;3.05;;;17.60;99.90;;;;;;4184323;28;20111;-56
2023/07/23 04:45:41;;;;;;;2.92;2.83;;;17.60;99.90;;;;;;4186646;28;20063;-56
2023/07/23 04:48:01;;;;;;;3.35;2.60;;;17.50;99.90;;;;;;4177859;28;20076;-55
2023/07/23 04:50:21;;;;;;;3.65;3.45;;;17.50;99.90;;;;;;4181234;28;20402;-55
2023/07/23 04:52:41;;;;;;;4.22;2.90;;;17.50;99.90;;;;;;4181730;28;20060;-55
2023/07/23 04:55:01;;;;;;;3.97;3.63;;;17.60;99.90;;;;;;4183102;28;20048;-56
2023/07/23 04:57:22;;;;;;;5.05;3.58;;;17.50;99.90;;;;;;4187429;28;20055;-55
2023/07/23 04:59:42;;;;;;;2.72;2.63;;;17.40;99.90;;;;;;4177283;28;20072;-55
2023/07/23 05:02:02;;;;;;;3.28;3.08;;;17.30;99.90;;;;;;4178789;28;20091;-56
2023/07/23 05:04:23;;;;;;;2.75;2.65;;;17.20;99.90;;;;;;4179228;28;20055;-55
2023/07/23 05:06:44;;;;;;;3.00;2.85;;;17.40;99.90;;;;;;4180691;28;20235;-56
2023/07/23 05:09:04;;;;;;;2.83;2.72;;;17.40;99.90;;;;;;4178022;28;20437;-55
2023/07/23 05:11:24;;;;;;;4.82;3.88;;;17.50;99.90;;;;;;4175650;28;20390;-55
2023/07/23 05:13:44;;;;;;;2.95;2.08;;;17.60;99.90;;;;;;4188451;28;20052;-56
2023/07/23 05:16:04;;;;;;;4.28;3.88;;;17.80;99.90;;;;;;4187219;28;20108;-55
2023/07/23 05:18:25;;;;;;;3.67;3.20;;;17.80;99.90;;;;;;4184116;28;20056;-55
2023/07/23 05:20:48;;;;;;;2.28;2.08;;;17.80;99.90;;;;;;4183247;28;20374;-55
2023/07/23 05:23:08;;;;;;;2.53;2.28;;;17.80;99.90;;;;;;4180854;28;20068;-55
2023/07/23 05:25:28;;;;;;;3.10;3.00;;;17.80;99.90;;;;;;4186240;28;20064;-55
2023/07/23 05:27:51;;;;;;;4.65;2.85;;;17.70;99.90;;;;;;4183460;28;20118;-55
2023/07/23 05:30:11;;;;;;;3.58;3.33;;;17.70;99.90;;;;;;4188501;28;20055;-56
2023/07/23 05:32:32;;;;;;;5.00;2.58;;;17.60;99.90;;;;;;4184886;28;20068;-55
2023/07/23 05:34:55;;;;;;;3.83;3.40;;;17.50;99.90;;;;;;4182434;28;20118;-55
2023/07/23 05:37:15;;;;;;;3.17;2.80;;;17.40;99.90;;;;;;4187644;28;20052;-55
2023/07/23 05:39:35;;;;;;;3.55;3.45;;;17.40;99.90;;;;;;4183911;28;20044;-55
2023/07/23 05:41:55;;;;;;;3.47;2.90;;;17.40;99.90;;;;;;4184433;28;20048;-56
2023/07/23 05:44:17;;;;;;;3.63;3.42;;;17.40;99.90;;;;;;4184320;28;20120;-55
2023/07/23 05:46:37;;;;;;;3.88;2.63;;;17.40;99.90;;;;;;4183710;28;20105;-55
2023/07/23 05:48:57;;;;;;;2.92;2.83;;;17.40;99.90;;;;;;4186092;28;20105;-56
2023/07/23 05:51:17;;;;;;;3.20;2.95;;;17.30;99.90;;;;;;4180037;28;20051;-55
2023/07/23 05:53:38;;;;;;;4.00;3.65;;;17.30;99.90;;;;;;4180053;28;20291;-55
2023/07/23 05:55:58;;;;;;;3.60;3.40;;;17.30;99.90;;;;;;4183048;28;20279;-56
2023/07/23 05:58:20;;;;;;;4.18;3.10;;;17.30;99.90;;;;;;4183063;28;20380;-55
2023/07/23 06:00:40;;;;;;;3.50;3.17;;;17.30;99.90;;;;;;4184405;28;20047;-55
2023/07/23 06:03:00;;;;;;;3.97;3.75;;;17.50;99.90;;;;;;4181601;28;20451;-55
2023/07/23 06:05:20;;;;;;;5.40;2.92;;;17.70;99.90;;;;;;4175861;28;20040;-56
2023/07/23 06:07:40;;;;;;;3.15;2.83;;;17.90;99.90;;;;;;4182768;28;20053;-55
2023/07/23 06:10:01;;;;;;;2.30;2.15;;;18.00;99.90;;;;;;4184052;28;20295;-55
2023/07/23 06:12:21;;;;;;;3.05;2.90;;;18.20;99.90;;;;;;4185068;28;20080;-56
2023/07/23 06:14:41;;;;;;;2.50;2.30;;;18.30;99.90;;;;;;4186741;28;20068;-55
2023/07/23 06:17:01;;;;;;;2.38;2.28;;;18.30;99.90;;;;;;4190142;28;20295;-56
2023/07/23 06:19:22;;;;;;;2.10;2.00;;;18.30;99.90;;;;;;4189264;28;20371;-56
2023/07/23 06:21:41;;;;;;;2.45;2.35;;;18.40;99.90;;;;;;4186864;28;20335;-56
2023/07/23 06:24:01;;;;;;;1.70;1.67;;;18.50;99.90;;;;;;4184565;28;20047;-56
2023/07/23 06:26:24;;;;;;;4.35;2.28;;;18.50;99.90;;;;;;4185974;28;20266;-56
2023/07/23 06:28:44;;;;;;;2.17;1.98;;;18.70;99.90;;;;;;4179211;28;20045;-55
2023/07/23 06:31:04;;;;;;;3.45;2.03;;;18.80;99.90;;;;;;4184254;28;20082;-56
2023/07/23 06:33:24;;;;;;;1.90;1.80;;;18.90;99.90;;;;;;4189927;28;20063;-55
2023/07/23 06:35:45;;;;;;;7.97;2.13;;;19.00;99.90;;;;;;4182368;28;20086;-55
2023/07/23 06:38:05;;;;;;;2.55;2.33;;;19.10;99.90;;;;;;4185651;28;20093;-55
2023/07/23 06:40:25;;;;;;;2.40;2.30;;;19.30;99.90;;;;;;4183861;28;20113;-55
2023/07/23 06:42:45;;;;;;;2.20;2.10;;;19.50;99.90;;;;;;4181976;28;20052;-55
2023/07/23 06:45:06;;;;;;;2.72;1.75;;;19.70;99.90;;;;;;4185660;28;20051;-55
2023/07/23 06:47:26;;;;;;;3.25;2.03;;;19.90;99.90;;;;;;4189745;28;20083;-55
2023/07/23 06:49:46;;;;;;;2.95;2.40;;;20.10;99.90;;;;;;4189716;28;20052;-55
2023/07/23 06:52:07;;;;;;;2.28;2.17;;;20.30;99.90;;;;;;4187464;28;20366;-55
2023/07/23 06:54:27;;;;;;;2.47;2.38;;;20.60;99.90;;;;;;4188966;28;20076;-56
2023/07/23 06:56:46;;;;;;;2.40;2.22;;;20.50;99.90;;;;;;4183344;28;20074;-55
2023/07/23 06:59:06;;;;;;;1.98;1.85;;;20.80;99.90;;;;;;4184924;28;20052;-55
2023/07/23 07:01:26;;;;;;;3.17;2.10;;;20.90;99.90;;;;;;4185747;28;20055;-55
2023/07/23 07:03:47;;;;;;;2.22;1.67;;;21.50;99.90;;;;;;4185989;28;20087;-55
2023/07/23 07:06:07;;;;;;;4.18;1.67;;;22.10;99.90;;;;;;4186029;28;20088;-55
2023/07/23 07:08:28;;;;;;;1.88;1.77;;;22.50;99.90;;;;;;4186401;28;20048;-56
2023/07/23 07:10:49;;;;;;;1.45;1.35;;;22.90;99.90;;;;;;4180552;28;20052;-55
2023/07/23 07:13:09;;;;;;;4.78;1.63;;;23.20;99.90;;;;;;4184613;28;20088;-55
2023/07/23 07:15:29;;;;;;;3.22;1.52;;;23.40;99.90;;;;;;4184827;28;20124;-55
2023/07/23 07:17:49;;;;;;;1.63;1.52;;;23.70;99.90;;;;;;4183218;28;20312;-56
2023/07/23 07:20:10;;;;;;;2.70;1.20;;;24.10;99.90;;;;;;4183473;28;20064;-55
2023/07/23 07:22:30;;;;;;;2.20;1.20;;;24.30;99.90;;;;;;4182933;28;20084;-55
2023/07/23 07:24:50;;;;;;;1.42;1.30;;;24.50;99.90;;;;;;4180478;28;20417;-55
2023/07/23 07:27:10;;;;;;;6.43;1.48;;;24.60;99.90;;;;;;4182665;28;20068;-55
2023/07/23 07:29:30;;;;;;;3.72;1.80;;;24.80;99.90;;;;;;4183785;28;20067;-55
2023/07/23 07:31:51;;;;;;;4.82;1.98;;;25.10;99.90;;;;;;4178456;28;20060;-55
2023/07/23 07:34:11;;;;;;;3.92;1.13;;;25.20;99.90;;;;;;4176079;28;20079;-56
2023/07/23 07:36:31;;;;;;;3.90;1.20;;;25.30;99.90;;;;;;4183340;28;20087;-55
2023/07/23 07:38:51;;;;;;;2.20;0.95;;;25.70;99.90;;;;;;4187174;28;20047;-55
2023/07/23 07:41:11;;;;;;;2.47;1.30;;;25.90;99.40;;;;;;4184529;28;20063;-55
2023/07/23 07:43:31;;;;;;;1.63;1.30;;;26.00;99.30;;;;;;4185441;28;20044;-55
2023/07/23 07:45:59;;;;;;;2.03;1.00;;;26.20;99.50;;;;;;4173999;28;20068;-55
2023/07/23 07:48:20;;;;;;;1.65;1.20;;;26.50;99.40;;;;;;4182971;28;20047;-56
2023/07/23 07:50:41;;;;;;;2.25;1.00;;;26.80;98.90;;;;;;4188275;28;20108;-55
2023/07/23 07:53:01;;;;;;;1.65;1.00;;;26.90;99.30;;;;;;4180811;28;20381;-55
2023/07/23 07:55:21;;;;;;;1.35;1.10;;;27.20;99.60;;;;;;4185367;28;20140;-55
2023/07/23 07:57:41;;;;;;;1.13;1.02;;;27.20;99.40;;;;;;4183601;28;20382;-56
2023/07/23 08:00:06;;;;;;;4.43;1.63;;;27.50;99.30;;;;;;4180571;28;20079;-55
2023/07/23 08:02:27;;;;;;;4.68;1.10;;;27.60;98.40;;;;;;4183151;28;20047;-56
2023/07/23 08:04:47;;;;;;;3.90;1.33;;;28.10;99.10;;;;;;4184822;28;20078;-56
2023/07/23 08:07:08;;;;;;;4.32;1.20;;;28.30;97.80;;;;;;4189309;28;20068;-56
2023/07/23 08:09:29;;;;;;;2.67;1.23;;;28.40;98.40;;;;;;4185293;28;20060;-55
2023/07/23 08:11:50;;;;;;;2.53;1.20;;;28.30;99.50;;;;;;4185739;28;20075;-55
2023/07/23 08:14:13;;;;;;;2.22;1.10;;;28.20;99.90;;;;;;4183259;28;20061;-55
2023/07/23 08:16:33;;;;;;;1.30;1.00;;;27.80;99.90;;;;;;4183352;28;20045;-56
2023/07/23 08:18:53;;;;;;;5.22;1.30;;;28.00;99.90;;;;;;4184466;28;20056;-55
2023/07/23 08:21:14;;;;;;;2.92;1.88;;;28.40;99.90;;;;;;4184166;28;20367;-55
2023/07/23 08:23:37;;;;;;;7.13;1.10;;;28.00;99.90;;;;;;4183409;28;20071;-55
2023/07/23 08:25:58;;;;;;;5.72;1.70;;;28.30;99.90;;;;;;4186520;28;20229;-55
2023/07/23 08:28:26;;;;;;;2.00;1.20;;;28.80;99.90;;;;;;4180487;28;20099;-56
2023/07/23 08:30:46;;;;;;;3.90;1.17;;;29.00;99.90;;;;;;4180646;28;20044;-56
2023/07/23 08:33:06;;;;;;;3.03;1.85;;;28.80;99.90;;;;;;4183250;28;20047;-56
2023/07/23 08:35:28;;;;;;;6.25;0.98;;;28.70;99.90;;;;;;4184450;28;20319;-55
2023/07/23 08:37:49;;;;;;;3.83;1.10;;;28.60;99.90;;;;;;4187982;28;20063;-55
2023/07/23 08:40:09;;;;;;;3.25;0.90;;;28.70;99.90;;;;;;4177974;28;20095;-55
2023/07/23 08:42:45;;;;;;;2.13;1.23;;;29.10;99.90;;;;;;4177294;28;20044;-55
2023/07/23 08:45:49;;;;;;;3.78;1.23;;;29.50;99.90;;;;;;4183118;28;20275;-55
2023/07/23 08:48:19;;;;;;;3.75;1.00;;;29.40;99.90;;;;;;4176408;28;20056;-56
2023/07/23 08:50:40;;;;;;;5.35;1.20;;;28.70;99.90;;;;;;4177539;28;20068;-55
2023/07/23 08:53:01;;;;;;;2.08;1.10;;;28.50;99.90;;;;;;4188628;28;20080;-55
2023/07/23 08:55:22;;;;;;;7.85;1.25;;;28.20;99.90;;;;;;4188829;28;20414;-55
2023/07/23 08:57:42;;;;;;;4.43;1.10;;;27.80;99.90;;;;;;4186204;28;20068;-55
2023/07/23 09:00:02;;;;;;;7.57;1.25;;;27.90;99.90;;;;;;4182579;28;20108;-55
2023/07/23 09:02:25;;;;;;;1.85;0.90;;;27.80;99.90;;;;;;4184962;28;20048;-56
2023/07/23 09:04:45;;;;;;;2.22;1.10;;;28.20;99.90;;;;;;4187514;28;20056;-55
2023/07/23 09:07:10;;;;;;;1.55;1.00;;;28.20;99.90;;;;;;4185681;28;20051;-55
2023/07/23 09:09:30;;;;;;;2.75;1.17;;;28.40;99.90;;;;;;4187124;28;20075;-55
2023/07/23 09:11:50;;;;;;;5.78;1.90;;;28.80;99.60;;;;;;4184764;28;20059;-55
2023/07/23 09:14:12;;;;;;;3.33;1.00;;;28.70;99.90;;;;;;4185072;28;20362;-55
2023/07/23 09:16:36;;;;;;;5.35;1.67;;;28.70;99.90;;;;;;4187474;28;20060;-55
2023/07/23 09:18:56;;;;;;;5.22;1.10;;;28.90;99.70;;;;;;4181304;28;20282;-55
2023/07/23 09:21:23;;;;;;;2.03;0.98;;;29.10;99.00;;;;;;4183592;28;20044;-56
2023/07/23 09:23:43;;;;;;;2.22;0.90;;;29.40;98.20;;;;;;4184363;28;20067;-55
2023/07/23 09:26:03;;;;;;;2.00;1.05;;;29.30;98.70;;;;;;4184593;28;20040;-57
2023/07/23 09:28:24;;;;;;;5.00;1.20;;;29.30;97.70;;;;;;4185329;28;20044;-56
2023/07/23 09:30:44;;;;;;;4.13;0.90;;;29.30;97.90;;;;;;4182174;28;20056;-55
2023/07/23 09:33:07;;;;;;;3.15;1.20;;;29.60;97.80;;;;;;4179442;28;20071;-56
2023/07/23 09:35:31;;;;;;;1.42;1.00;;;29.60;97.70;;;;;;4181688;28;20405;-56
2023/07/23 09:37:59;;;;;;;1.25;0.95;;;29.80;97.10;;;;;;4182302;28;20134;-56
2023/07/23 09:40:19;;;;;;;1.90;1.00;;;29.80;97.50;;;;;;4186409;28;20087;-55
2023/07/23 09:42:39;;;;;;;1.85;1.00;;;30.00;96.70;;;;;;4188113;28;20071;-56
2023/07/23 09:45:01;;;;;;;3.58;1.50;;;29.80;96.20;;;;;;4179347;28;20086;-56
2023/07/23 09:47:24;;;;;;;5.05;1.75;;;30.20;96.90;;;;;;4177623;28;20079;-57
2023/07/23 09:49:45;;;;;;;3.53;1.05;;;30.10;95.60;;;;;;4179941;28;20090;-55
2023/07/23 09:52:09;;;;;;;3.90;1.42;;;30.40;95.00;;;;;;4181856;28;20064;-56
2023/07/23 09:54:29;;;;;;;3.35;1.20;;;30.60;94.50;;;;;;4184831;28;20087;-56
2023/07/23 09:56:53;;;;;;;3.72;1.30;;;31.00;94.20;;;;;;4175715;28;20049;-55
2023/07/23 09:59:14;;;;;;;1.15;0.95;;;31.10;94.10;;;;;;4187107;28;20067;-55
2023/07/23 10:01:34;;;;;;;4.38;1.00;;;30.50;95.00;;;;;;4184743;28;20039;-56
2023/07/23 10:03:57;;;;;;;1.00;0.90;;;30.90;96.00;;;;;;4182286;28;20060;-56
2023/07/23 10:06:20;;;;;;;2.60;1.65;;;30.60;94.10;;;;;;4182361;28;20056;-55
2023/07/23 10:08:42;;;;;;;3.55;1.92;;;30.50;94.40;;;;;;4177030;28;20047;-56
2023/07/23 10:11:02;;;;;;;2.45;1.52;;;31.00;94.60;;;;;;4182074;28;20063;-55
2023/07/23 10:13:22;;;;;;;2.75;1.10;;;31.40;94.50;;;;;;4187801;28;20052;-55
2023/07/23 10:15:43;;;;;;;1.75;1.20;;;31.70;94.80;;;;;;4179522;28;20444;-56
2023/07/23 10:18:04;;;;;;;4.85;1.10;;;31.30;93.40;;;;;;4182467;28;20044;-55
2023/07/23 10:20:27;;;;;;;3.33;1.30;;;31.50;93.70;;;;;;4181546;28;20053;-55
2023/07/23 10:22:48;;;;;;;2.15;1.58;;;31.70;92.50;;;;;;4180433;28;20086;-56
2023/07/23 10:25:32;;;;;;;2.80;1.60;;;31.50;92.90;;;;;;4183617;28;20102;-56
2023/07/23 10:28:00;;;;;;;2.35;1.10;;;31.70;91.80;;;;;;4185776;28;20048;-55
2023/07/23 10:30:21;;;;;;;1.33;1.13;;;31.90;92.40;;;;;;4184331;28;20094;-55
2023/07/23 10:32:41;;;;;;;2.50;1.20;;;31.40;92.10;;;;;;4183121;28;20096;-55
2023/07/23 10:35:02;;;;;;;3.28;2.90;;;31.40;92.60;;;;;;4180054;28;20399;-56
2023/07/23 10:37:22;;;;;;;4.50;1.77;;;31.70;90.20;;;;;;4182139;28;20072;-56
2023/07/23 10:39:47;;;;;;;3.08;1.50;;;32.00;92.50;;;;;;4182211;28;20080;-56
2023/07/23 10:42:07;;;;;;;2.42;1.65;;;32.00;91.30;;;;;;4184151;28;20061;-55
2023/07/23 10:44:30;;;;;;;2.08;1.58;;;31.80;91.20;;;;;;4183971;28;20075;-55
2023/07/23 10:46:50;;;;;;;4.35;1.67;;;31.60;92.30;;;;;;4186383;28;20090;-55
2023/07/23 10:49:23;;;;;;;4.03;2.08;;;32.00;92.40;;;;;;4181931;28;20052;-56
2023/07/23 10:51:43;;;;;;;3.22;1.80;;;32.20;91.40;;;;;;4179106;28;20366;-55
2023/07/23 10:54:05;;;;;;;3.65;2.17;;;31.90;91.30;;;;;;4183986;28;20079;-56
2023/07/23 10:56:27;;;;;;;5.43;2.47;;;31.80;92.10;;;;;;4184892;28;20387;-56
2023/07/23 10:58:48;;;;;;;3.63;1.67;;;32.40;91.30;;;;;;4184913;28;20260;-56
2023/07/23 11:01:11;;;;;;;3.60;2.05;;;32.00;90.60;;;;;;4184250;28;20051;-56
2023/07/23 11:03:32;;;;;;;6.45;2.05;;;31.70;90.80;;;;;;4179957;28;20045;-56
2023/07/23 11:05:53;;;;;;;2.95;1.70;;;31.50;91.50;;;;;;4181542;28;20098;-55
2023/07/23 11:08:19;;;;;;;2.15;1.50;;;31.40;91.90;;;;;;4182742;28;20366;-55
2023/07/23 11:11:00;;;;;;;5.05;1.95;;;30.80;91.40;;;;;;4180342;28;20128;-55
2023/07/23 11:13:23;;;;;;;5.32;1.85;;;30.90;91.60;;;;;;4179884;28;20412;-55
2023/07/23 11:15:44;;;;;;;4.80;1.70;;;31.10;91.60;;;;;;4186397;28;20044;-55
2023/07/23 11:18:05;;;;;;;2.65;2.13;;;31.20;90.90;;;;;;4178147;28;20095;-55
2023/07/23 11:20:26;;;;;;;3.60;1.40;;;31.10;91.80;;;;;;4185614;28;20041;-55
2023/07/23 11:22:47;;;;;;;3.20;1.90;;;31.00;91.10;;;;;;4184388;28;20068;-54
2023/07/23 11:25:14;;;;;;;2.50;2.08;;;30.60;91.30;;;;;;4181818;28;20515;-55
2023/07/23 11:27:34;;;;;;;3.80;2.55;;;30.40;91.00;;;;;;4182052;28;20043;-55
2023/07/23 11:29:54;;;;;;;3.08;1.92;;;30.60;91.60;;;;;;4185396;28;20063;-56
2023/07/23 11:32:14;;;;;;;5.75;2.60;;;31.50;92.70;;;;;;4190012;28;20398;-55
2023/07/23 11:34:33;;;;;;;4.78;3.60;;;32.20;85.10;;;;;;4186176;28;20098;-55
2023/07/23 11:36:55;;;;;;;2.72;2.15;;;32.60;83.60;;;;;;4185978;28;20035;-56
2023/07/23 11:39:16;;;;;;;2.40;2.20;;;33.00;79.60;;;;;;4182787;28;20063;-56
2023/07/23 11:41:41;;;;;;;5.65;2.53;;;32.80;78.70;;;;;;4182966;28;20103;-55
2023/07/23 11:44:05;;;;;;;2.17;2.05;;;32.70;81.60;;;;;;4186252;28;20129;-56
2023/07/23 11:46:25;;;;;;;2.83;2.42;;;32.80;79.40;;;;;;4188020;28;20116;-55
2023/07/23 11:48:46;;;;;;;4.00;2.45;;;32.80;78.50;;;;;;4185083;28;20079;-55
2023/07/23 11:51:05;;;;;;;2.65;2.13;;;33.00;79.90;;;;;;4187413;28;20094;-56
2023/07/23 11:53:34;;;;;;;3.05;2.08;;;33.10;76.70;;;;;;4182137;28;20044;-56
2023/07/23 11:56:01;;;;;;;2.88;2.65;;;33.10;78.70;;;;;;4182357;28;20129;-56
2023/07/23 11:58:21;;;;;;;3.55;2.70;;;33.10;77.80;;;;;;4184145;28;20053;-55
2023/07/23 12:00:48;;;;;;;3.28;2.83;;;33.60;79.00;;;;;;4184237;28;20036;-56
2023/07/23 12:03:09;;;;;;;3.15;2.42;;;33.40;80.60;;;;;;4185117;28;20367;-55
2023/07/23 12:05:29;;;;;;;2.55;2.28;;;33.90;81.10;;;;;;4187863;28;20048;-55
2023/07/23 12:07:53;;;;;;;2.35;2.15;;;34.60;81.20;;;;;;4180783;28;20040;-56
2023/07/23 12:10:14;;;;;;;5.13;3.50;;;34.60;76.30;;;;;;4181380;28;20068;-55
2023/07/23 12:12:35;;;;;;;3.53;3.28;;;34.40;77.20;;;;;;4181523;28;20056;-55
2023/07/23 12:15:05;;;;;;;5.50;5.03;;;34.30;73.60;;;;;;4183747;28;20090;-55